Ottine, Texas
Current Conditions -  °F | °C
As of 4:55 PM on Monday 24 Nov 2014 (Local Time) from KT20 Reporting Station
Thunderstorm Thunderstorm  
Wind Chill: 63°   Ceiling: Unl
Heat Index: 63°   Visibility: 10mi
Dew Point: 30°   Wind: 5mph
Humidity: 29%   Direction: 30°NNE
Pressure: 30.04"   Gusts: NA
Location:  29.6°N, 97.58°W
Report Text: KT20 242255Z AUTO 03004KT 10SM VCTS CLR 17/M01 A3004 RMK AO2 T01741010
Loading
Personal Weather Stations






























Interactive Weather Map New forecast layout! Learn more

10-Day Weather Forecast

Advertisements
Track Severe Weather on mobile